sensor_id;sensor_type;location;lat;lon;timestamp;P1;durP1;ratioP1;P2;durP2;ratioP2
7573;SDS011;3828;48.922;9.116;2023-03-15T00:00:10;1.50;;;1.50;;
7573;SDS011;3828;48.922;9.116;2023-03-15T00:02:38;1.70;;;1.70;;
7573;SDS011;3828;48.922;9.116;2023-03-15T00:05:05;1.57;;;1.57;;
7573;SDS011;3828;48.922;9.116;2023-03-15T00:07:33;1.80;;;1.80;;
7573;SDS011;3828;48.922;9.116;2023-03-15T00:09:59;1.80;;;1.80;;
7573;SDS011;3828;48.922;9.116;2023-03-15T00:12:26;1.57;;;1.57;;
7573;SDS011;3828;48.922;9.116;2023-03-15T00:14:53;1.53;;;1.53;;
7573;SDS011;3828;48.922;9.116;2023-03-15T00:17:22;1.90;;;1.90;;
7573;SDS011;3828;48.922;9.116;2023-03-15T00:19:49;1.63;;;1.63;;
7573;SDS011;3828;48.922;9.116;2023-03-15T00:22:15;1.80;;;1.80;;
7573;SDS011;3828;48.922;9.116;2023-03-15T00:24:42;1.70;;;1.70;;
7573;SDS011;3828;48.922;9.116;2023-03-15T00:27:09;1.80;;;1.80;;
7573;SDS011;3828;48.922;9.116;2023-03-15T00:29:36;1.50;;;1.50;;
7573;SDS011;3828;48.922;9.116;2023-03-15T00:32:03;1.60;;;1.60;;
7573;SDS011;3828;48.922;9.116;2023-03-15T00:34:32;1.60;;;1.60;;
7573;SDS011;3828;48.922;9.116;2023-03-15T00:36:59;1.80;;;1.80;;
7573;SDS011;3828;48.922;9.116;2023-03-15T00:39:26;1.80;;;1.80;;
7573;SDS011;3828;48.922;9.116;2023-03-15T00:41:53;1.70;;;1.70;;
7573;SDS011;3828;48.922;9.116;2023-03-15T00:44:21;1.70;;;1.70;;
7573;SDS011;3828;48.922;9.116;2023-03-15T00:46:48;1.83;;;1.83;;
7573;SDS011;3828;48.922;9.116;2023-03-15T00:49:15;1.40;;;1.40;;
7573;SDS011;3828;48.922;9.116;2023-03-15T00:51:43;1.60;;;1.60;;
7573;SDS011;3828;48.922;9.116;2023-03-15T00:54:11;1.70;;;1.70;;
7573;SDS011;3828;48.922;9.116;2023-03-15T00:56:38;1.50;;;1.50;;
7573;SDS011;3828;48.922;9.116;2023-03-15T00:59:05;1.50;;;1.50;;
7573;SDS011;3828;48.922;9.116;2023-03-15T01:01:33;1.60;;;1.60;;
7573;SDS011;3828;48.922;9.116;2023-03-15T01:04:00;1.43;;;1.43;;
7573;SDS011;3828;48.922;9.116;2023-03-15T01:06:27;1.40;;;1.40;;
7573;SDS011;3828;48.922;9.116;2023-03-15T01:08:56;1.63;;;1.63;;
7573;SDS011;3828;48.922;9.116;2023-03-15T01:11:24;1.60;;;1.60;;
7573;SDS011;3828;48.922;9.116;2023-03-15T01:13:54;1.80;;;1.80;;
7573;SDS011;3828;48.922;9.116;2023-03-15T01:16:23;1.50;;;1.50;;
7573;SDS011;3828;48.922;9.116;2023-03-15T01:18:53;1.73;;;1.73;;
7573;SDS011;3828;48.922;9.116;2023-03-15T01:21:20;1.57;;;1.57;;
7573;SDS011;3828;48.922;9.116;2023-03-15T01:23:50;1.70;;;1.70;;
7573;SDS011;3828;48.922;9.116;2023-03-15T01:26:19;1.60;;;1.60;;
7573;SDS011;3828;48.922;9.116;2023-03-15T01:28:46;1.73;;;1.73;;
7573;SDS011;3828;48.922;9.116;2023-03-15T01:31:15;1.70;;;1.70;;
7573;SDS011;3828;48.922;9.116;2023-03-15T01:33:44;1.73;;;1.73;;
7573;SDS011;3828;48.922;9.116;2023-03-15T01:36:11;1.50;;;1.50;;
7573;SDS011;3828;48.922;9.116;2023-03-15T01:38:38;1.60;;;1.60;;
7573;SDS011;3828;48.922;9.116;2023-03-15T01:41:05;1.40;;;1.40;;
7573;SDS011;3828;48.922;9.116;2023-03-15T01:43:33;1.60;;;1.60;;
7573;SDS011;3828;48.922;9.116;2023-03-15T01:46:02;1.80;;;1.80;;
7573;SDS011;3828;48.922;9.116;2023-03-15T01:48:33;1.70;;;1.70;;
7573;SDS011;3828;48.922;9.116;2023-03-15T01:51:04;1.67;;;1.67;;
7573;SDS011;3828;48.922;9.116;2023-03-15T01:53:39;1.70;;;1.70;;
7573;SDS011;3828;48.922;9.116;2023-03-15T01:56:11;1.70;;;1.70;;
7573;SDS011;3828;48.922;9.116;2023-03-15T01:58:40;1.70;;;1.70;;
7573;SDS011;3828;48.922;9.116;2023-03-15T02:01:10;1.70;;;1.70;;
7573;SDS011;3828;48.922;9.116;2023-03-15T02:03:38;1.70;;;1.70;;
7573;SDS011;3828;48.922;9.116;2023-03-15T02:06:11;1.80;;;1.80;;
7573;SDS011;3828;48.922;9.116;2023-03-15T02:08:42;1.57;;;1.57;;
7573;SDS011;3828;48.922;9.116;2023-03-15T02:11:15;1.80;;;1.80;;
7573;SDS011;3828;48.922;9.116;2023-03-15T02:13:45;1.57;;;1.57;;
7573;SDS011;3828;48.922;9.116;2023-03-15T02:16:14;1.70;;;1.70;;
7573;SDS011;3828;48.922;9.116;2023-03-15T02:18:41;1.80;;;1.80;;
7573;SDS011;3828;48.922;9.116;2023-03-15T02:21:11;1.90;;;1.90;;
7573;SDS011;3828;48.922;9.116;2023-03-15T02:23:46;1.67;;;1.67;;
7573;SDS011;3828;48.922;9.116;2023-03-15T02:26:19;1.70;;;1.70;;
7573;SDS011;3828;48.922;9.116;2023-03-15T02:28:52;1.70;;;1.70;;
7573;SDS011;3828;48.922;9.116;2023-03-15T02:31:20;1.63;;;1.63;;
7573;SDS011;3828;48.922;9.116;2023-03-15T02:33:48;1.90;;;1.90;;
7573;SDS011;3828;48.922;9.116;2023-03-15T02:36:17;1.90;;;1.90;;
7573;SDS011;3828;48.922;9.116;2023-03-15T02:38:45;1.50;;;1.50;;
7573;SDS011;3828;48.922;9.116;2023-03-15T02:41:15;1.80;;;1.80;;
7573;SDS011;3828;48.922;9.116;2023-03-15T02:43:45;1.60;;;1.60;;
7573;SDS011;3828;48.922;9.116;2023-03-15T02:46:16;1.90;;;1.90;;
7573;SDS011;3828;48.922;9.116;2023-03-15T02:48:43;1.80;;;1.80;;
7573;SDS011;3828;48.922;9.116;2023-03-15T02:51:15;1.50;;;1.50;;
7573;SDS011;3828;48.922;9.116;2023-03-15T02:53:45;1.70;;;1.70;;
7573;SDS011;3828;48.922;9.116;2023-03-15T02:56:12;1.80;;;1.80;;
7573;SDS011;3828;48.922;9.116;2023-03-15T02:58:39;1.70;;;1.70;;
7573;SDS011;3828;48.922;9.116;2023-03-15T03:01:09;1.97;;;1.97;;
7573;SDS011;3828;48.922;9.116;2023-03-15T03:03:38;1.90;;;1.90;;
7573;SDS011;3828;48.922;9.116;2023-03-15T03:06:05;1.70;;;1.70;;
7573;SDS011;3828;48.922;9.116;2023-03-15T03:08:32;1.90;;;1.90;;
7573;SDS011;3828;48.922;9.116;2023-03-15T03:10:59;1.60;;;1.60;;
7573;SDS011;3828;48.922;9.116;2023-03-15T03:13:26;1.50;;;1.50;;
7573;SDS011;3828;48.922;9.116;2023-03-15T03:15:53;1.50;;;1.50;;
7573;SDS011;3828;48.922;9.116;2023-03-15T03:18:23;1.73;;;1.73;;
7573;SDS011;3828;48.922;9.116;2023-03-15T03:20:53;1.60;;;1.60;;
7573;SDS011;3828;48.922;9.116;2023-03-15T03:23:21;1.80;;;1.80;;
7573;SDS011;3828;48.922;9.116;2023-03-15T03:25:49;1.70;;;1.70;;
7573;SDS011;3828;48.922;9.116;2023-03-15T03:28:17;1.73;;;1.73;;
7573;SDS011;3828;48.922;9.116;2023-03-15T03:30:44;1.67;;;1.67;;
7573;SDS011;3828;48.922;9.116;2023-03-15T03:33:11;1.90;;;1.90;;
7573;SDS011;3828;48.922;9.116;2023-03-15T03:35:38;1.80;;;1.80;;
7573;SDS011;3828;48.922;9.116;2023-03-15T03:38:08;1.80;;;1.80;;
7573;SDS011;3828;48.922;9.116;2023-03-15T03:40:36;1.53;;;1.53;;
7573;SDS011;3828;48.922;9.116;2023-03-15T03:43:03;1.90;;;1.90;;
7573;SDS011;3828;48.922;9.116;2023-03-15T03:45:30;1.83;;;1.83;;
7573;SDS011;3828;48.922;9.116;2023-03-15T03:47:56;1.77;;;1.77;;
7573;SDS011;3828;48.922;9.116;2023-03-15T03:50:24;1.50;;;1.50;;
7573;SDS011;3828;48.922;9.116;2023-03-15T03:52:51;1.87;;;1.87;;
7573;SDS011;3828;48.922;9.116;2023-03-15T03:55:19;1.87;;;1.87;;
7573;SDS011;3828;48.922;9.116;2023-03-15T03:57:49;1.80;;;1.80;;
7573;SDS011;3828;48.922;9.116;2023-03-15T04:00:17;1.77;;;1.77;;
7573;SDS011;3828;48.922;9.116;2023-03-15T04:02:46;1.53;;;1.53;;
7573;SDS011;3828;48.922;9.116;2023-03-15T04:05:14;1.63;;;1.63;;
7573;SDS011;3828;48.922;9.116;2023-03-15T04:07:41;1.73;;;1.73;;
7573;SDS011;3828;48.922;9.116;2023-03-15T04:10:09;1.93;;;1.93;;
7573;SDS011;3828;48.922;9.116;2023-03-15T04:12:40;2.00;;;2.00;;
7573;SDS011;3828;48.922;9.116;2023-03-15T04:15:07;1.70;;;1.70;;
7573;SDS011;3828;48.922;9.116;2023-03-15T04:17:36;2.00;;;2.00;;
7573;SDS011;3828;48.922;9.116;2023-03-15T04:20:03;1.80;;;1.80;;
7573;SDS011;3828;48.922;9.116;2023-03-15T04:22:33;1.80;;;1.80;;
7573;SDS011;3828;48.922;9.116;2023-03-15T04:24:59;1.70;;;1.70;;
7573;SDS011;3828;48.922;9.116;2023-03-15T04:27:27;1.80;;;1.80;;
7573;SDS011;3828;48.922;9.116;2023-03-15T04:29:55;1.70;;;1.70;;
7573;SDS011;3828;48.922;9.116;2023-03-15T04:32:22;1.87;;;1.87;;
7573;SDS011;3828;48.922;9.116;2023-03-15T04:34:49;1.90;;;1.90;;
7573;SDS011;3828;48.922;9.116;2023-03-15T04:37:16;1.70;;;1.70;;
7573;SDS011;3828;48.922;9.116;2023-03-15T04:39:43;1.70;;;1.70;;
7573;SDS011;3828;48.922;9.116;2023-03-15T04:42:10;1.70;;;1.70;;
7573;SDS011;3828;48.922;9.116;2023-03-15T04:44:37;1.90;;;1.90;;
7573;SDS011;3828;48.922;9.116;2023-03-15T04:47:05;1.80;;;1.80;;
7573;SDS011;3828;48.922;9.116;2023-03-15T04:49:32;1.60;;;1.60;;
7573;SDS011;3828;48.922;9.116;2023-03-15T04:51:59;1.67;;;1.67;;
7573;SDS011;3828;48.922;9.116;2023-03-15T04:54:26;1.60;;;1.60;;
7573;SDS011;3828;48.922;9.116;2023-03-15T04:56:53;1.80;;;1.80;;
7573;SDS011;3828;48.922;9.116;2023-03-15T04:59:20;1.70;;;1.70;;
7573;SDS011;3828;48.922;9.116;2023-03-15T05:01:48;1.90;;;1.90;;
7573;SDS011;3828;48.922;9.116;2023-03-15T05:04:17;1.67;;;1.67;;
7573;SDS011;3828;48.922;9.116;2023-03-15T05:06:44;2.10;;;2.10;;
7573;SDS011;3828;48.922;9.116;2023-03-15T05:09:11;1.80;;;1.80;;
7573;SDS011;3828;48.922;9.116;2023-03-15T05:11:43;1.80;;;1.80;;
7573;SDS011;3828;48.922;9.116;2023-03-15T05:14:09;1.73;;;1.73;;
7573;SDS011;3828;48.922;9.116;2023-03-15T05:16:36;1.70;;;1.70;;
7573;SDS011;3828;48.922;9.116;2023-03-15T05:19:03;1.80;;;1.80;;
7573;SDS011;3828;48.922;9.116;2023-03-15T05:21:32;1.63;;;1.63;;
7573;SDS011;3828;48.922;9.116;2023-03-15T05:23:59;1.90;;;1.90;;
7573;SDS011;3828;48.922;9.116;2023-03-15T05:26:26;2.13;;;2.13;;
7573;SDS011;3828;48.922;9.116;2023-03-15T05:28:53;1.80;;;1.80;;
7573;SDS011;3828;48.922;9.116;2023-03-15T05:31:19;1.63;;;1.63;;
7573;SDS011;3828;48.922;9.116;2023-03-15T05:33:46;1.90;;;1.90;;
7573;SDS011;3828;48.922;9.116;2023-03-15T05:36:13;1.80;;;1.80;;
7573;SDS011;3828;48.922;9.116;2023-03-15T05:38:43;1.90;;;1.90;;
7573;SDS011;3828;48.922;9.116;2023-03-15T05:41:09;1.70;;;1.70;;
7573;SDS011;3828;48.922;9.116;2023-03-15T05:43:36;1.60;;;1.60;;
7573;SDS011;3828;48.922;9.116;2023-03-15T05:46:03;1.70;;;1.70;;
7573;SDS011;3828;48.922;9.116;2023-03-15T05:48:30;1.53;;;1.53;;
7573;SDS011;3828;48.922;9.116;2023-03-15T05:50:57;1.43;;;1.43;;
7573;SDS011;3828;48.922;9.116;2023-03-15T05:53:24;1.70;;;1.70;;
7573;SDS011;3828;48.922;9.116;2023-03-15T05:55:52;1.47;;;1.47;;
7573;SDS011;3828;48.922;9.116;2023-03-15T05:58:19;1.53;;;1.53;;
7573;SDS011;3828;48.922;9.116;2023-03-15T06:00:45;1.50;;;1.50;;
7573;SDS011;3828;48.922;9.116;2023-03-15T06:03:13;1.70;;;1.70;;
7573;SDS011;3828;48.922;9.116;2023-03-15T06:05:40;1.80;;;1.80;;
7573;SDS011;3828;48.922;9.116;2023-03-15T06:08:08;2.00;;;2.00;;
7573;SDS011;3828;48.922;9.116;2023-03-15T06:10:35;1.70;;;1.70;;
7573;SDS011;3828;48.922;9.116;2023-03-15T06:13:03;1.90;;;1.90;;
7573;SDS011;3828;48.922;9.116;2023-03-15T06:15:31;1.80;;;1.80;;
7573;SDS011;3828;48.922;9.116;2023-03-15T06:17:58;1.90;;;1.90;;
7573;SDS011;3828;48.922;9.116;2023-03-15T06:20:25;1.80;;;1.80;;
7573;SDS011;3828;48.922;9.116;2023-03-15T06:22:52;1.80;;;1.80;;
7573;SDS011;3828;48.922;9.116;2023-03-15T06:25:19;1.90;;;1.90;;
7573;SDS011;3828;48.922;9.116;2023-03-15T06:27:49;1.60;;;1.60;;
7573;SDS011;3828;48.922;9.116;2023-03-15T06:30:17;1.50;;;1.50;;
7573;SDS011;3828;48.922;9.116;2023-03-15T06:32:44;1.80;;;1.80;;
7573;SDS011;3828;48.922;9.116;2023-03-15T06:35:12;1.50;;;1.50;;
7573;SDS011;3828;48.922;9.116;2023-03-15T06:37:38;1.80;;;1.80;;
7573;SDS011;3828;48.922;9.116;2023-03-15T06:40:06;1.70;;;1.70;;
7573;SDS011;3828;48.922;9.116;2023-03-15T06:42:35;1.50;;;1.50;;
7573;SDS011;3828;48.922;9.116;2023-03-15T06:45:02;1.87;;;1.87;;
7573;SDS011;3828;48.922;9.116;2023-03-15T06:47:30;1.70;;;1.70;;
7573;SDS011;3828;48.922;9.116;2023-03-15T06:49:57;1.70;;;1.70;;
7573;SDS011;3828;48.922;9.116;2023-03-15T06:52:24;1.53;;;1.53;;
7573;SDS011;3828;48.922;9.116;2023-03-15T06:54:51;1.50;;;1.50;;
7573;SDS011;3828;48.922;9.116;2023-03-15T06:57:20;1.60;;;1.60;;
7573;SDS011;3828;48.922;9.116;2023-03-15T06:59:47;1.33;;;1.33;;
7573;SDS011;3828;48.922;9.116;2023-03-15T07:02:15;1.40;;;1.40;;
7573;SDS011;3828;48.922;9.116;2023-03-15T07:04:44;1.40;;;1.40;;
7573;SDS011;3828;48.922;9.116;2023-03-15T07:07:12;1.63;;;1.63;;
7573;SDS011;3828;48.922;9.116;2023-03-15T07:09:40;1.60;;;1.60;;
7573;SDS011;3828;48.922;9.116;2023-03-15T07:12:07;1.70;;;1.70;;
7573;SDS011;3828;48.922;9.116;2023-03-15T07:14:36;1.50;;;1.50;;
7573;SDS011;3828;48.922;9.116;2023-03-15T07:17:03;1.33;;;1.33;;
7573;SDS011;3828;48.922;9.116;2023-03-15T07:19:30;1.47;;;1.47;;
7573;SDS011;3828;48.922;9.116;2023-03-15T07:21:58;1.40;;;1.40;;
7573;SDS011;3828;48.922;9.116;2023-03-15T07:24:25;1.40;;;1.40;;
7573;SDS011;3828;48.922;9.116;2023-03-15T07:26:52;1.40;;;1.40;;
7573;SDS011;3828;48.922;9.116;2023-03-15T07:29:20;1.40;;;1.40;;
7573;SDS011;3828;48.922;9.116;2023-03-15T07:31:47;1.50;;;1.50;;
7573;SDS011;3828;48.922;9.116;2023-03-15T07:34:15;1.40;;;1.40;;
7573;SDS011;3828;48.922;9.116;2023-03-15T07:36:42;1.40;;;1.40;;
7573;SDS011;3828;48.922;9.116;2023-03-15T07:39:11;1.40;;;1.40;;
7573;SDS011;3828;48.922;9.116;2023-03-15T07:41:37;1.30;;;1.30;;
7573;SDS011;3828;48.922;9.116;2023-03-15T07:44:04;1.50;;;1.50;;
7573;SDS011;3828;48.922;9.116;2023-03-15T07:46:31;1.30;;;1.30;;
7573;SDS011;3828;48.922;9.116;2023-03-15T07:48:59;1.20;;;1.20;;
7573;SDS011;3828;48.922;9.116;2023-03-15T07:51:26;1.50;;;1.50;;
7573;SDS011;3828;48.922;9.116;2023-03-15T07:53:53;1.40;;;1.40;;
7573;SDS011;3828;48.922;9.116;2023-03-15T07:56:21;1.33;;;1.33;;
7573;SDS011;3828;48.922;9.116;2023-03-15T07:58:48;1.40;;;1.40;;
7573;SDS011;3828;48.922;9.116;2023-03-15T08:01:15;1.33;;;1.33;;
7573;SDS011;3828;48.922;9.116;2023-03-15T08:03:42;1.40;;;1.40;;
7573;SDS011;3828;48.922;9.116;2023-03-15T08:06:09;1.43;;;1.43;;
7573;SDS011;3828;48.922;9.116;2023-03-15T08:08:36;1.30;;;1.30;;
7573;SDS011;3828;48.922;9.116;2023-03-15T08:11:03;1.30;;;1.30;;
7573;SDS011;3828;48.922;9.116;2023-03-15T08:13:32;1.40;;;1.40;;
7573;SDS011;3828;48.922;9.116;2023-03-15T08:15:58;1.40;;;1.40;;
7573;SDS011;3828;48.922;9.116;2023-03-15T08:18:25;1.30;;;1.30;;
7573;SDS011;3828;48.922;9.116;2023-03-15T08:20:53;1.30;;;1.30;;
7573;SDS011;3828;48.922;9.116;2023-03-15T08:23:20;1.20;;;1.20;;
7573;SDS011;3828;48.922;9.116;2023-03-15T08:25:48;1.00;;;1.00;;
7573;SDS011;3828;48.922;9.116;2023-03-15T08:28:15;1.10;;;1.10;;
7573;SDS011;3828;48.922;9.116;2023-03-15T08:30:43;1.10;;;1.10;;
7573;SDS011;3828;48.922;9.116;2023-03-15T08:33:10;1.10;;;1.10;;
7573;SDS011;3828;48.922;9.116;2023-03-15T08:35:37;1.00;;;1.00;;
7573;SDS011;3828;48.922;9.116;2023-03-15T08:38:05;0.97;;;0.97;;
7573;SDS011;3828;48.922;9.116;2023-03-15T08:40:41;1.00;;;1.00;;
7573;SDS011;3828;48.922;9.116;2023-03-15T08:43:08;1.00;;;1.00;;
7573;SDS011;3828;48.922;9.116;2023-03-15T08:45:35;0.90;;;0.90;;
7573;SDS011;3828;48.922;9.116;2023-03-15T08:48:12;1.00;;;1.00;;
7573;SDS011;3828;48.922;9.116;2023-03-15T08:50:38;1.00;;;1.00;;
7573;SDS011;3828;48.922;9.116;2023-03-15T08:53:12;1.10;;;1.10;;
7573;SDS011;3828;48.922;9.116;2023-03-15T08:55:39;1.10;;;1.10;;
7573;SDS011;3828;48.922;9.116;2023-03-15T08:58:08;1.20;;;1.20;;
7573;SDS011;3828;48.922;9.116;2023-03-15T09:00:43;1.13;;;1.13;;
7573;SDS011;3828;48.922;9.116;2023-03-15T09:03:12;1.30;;;1.30;;
7573;SDS011;3828;48.922;9.116;2023-03-15T09:05:40;1.20;;;1.20;;
7573;SDS011;3828;48.922;9.116;2023-03-15T09:08:07;1.30;;;1.30;;
7573;SDS011;3828;48.922;9.116;2023-03-15T09:10:34;1.43;;;1.43;;
7573;SDS011;3828;48.922;9.116;2023-03-15T09:13:01;1.20;;;1.20;;
7573;SDS011;3828;48.922;9.116;2023-03-15T09:15:28;1.30;;;1.30;;
7573;SDS011;3828;48.922;9.116;2023-03-15T09:17:55;1.10;;;1.10;;
7573;SDS011;3828;48.922;9.116;2023-03-15T09:20:24;1.30;;;1.30;;
7573;SDS011;3828;48.922;9.116;2023-03-15T09:22:53;1.40;;;1.40;;
7573;SDS011;3828;48.922;9.116;2023-03-15T09:25:22;1.40;;;1.40;;
7573;SDS011;3828;48.922;9.116;2023-03-15T09:27:50;1.30;;;1.30;;
7573;SDS011;3828;48.922;9.116;2023-03-15T09:30:17;1.40;;;1.40;;
7573;SDS011;3828;48.922;9.116;2023-03-15T09:32:45;1.27;;;1.27;;
7573;SDS011;3828;48.922;9.116;2023-03-15T09:35:12;1.40;;;1.40;;
7573;SDS011;3828;48.922;9.116;2023-03-15T09:37:41;1.30;;;1.30;;
7573;SDS011;3828;48.922;9.116;2023-03-15T09:40:12;1.30;;;1.30;;
7573;SDS011;3828;48.922;9.116;2023-03-15T09:42:48;1.20;;;1.20;;
7573;SDS011;3828;48.922;9.116;2023-03-15T09:45:23;1.40;;;1.40;;
7573;SDS011;3828;48.922;9.116;2023-03-15T09:47:58;1.40;;;1.40;;
7573;SDS011;3828;48.922;9.116;2023-03-15T09:50:30;1.20;;;1.20;;
7573;SDS011;3828;48.922;9.116;2023-03-15T09:53:00;1.30;;;1.30;;
7573;SDS011;3828;48.922;9.116;2023-03-15T09:55:30;1.20;;;1.20;;
7573;SDS011;3828;48.922;9.116;2023-03-15T09:57:58;1.20;;;1.20;;
7573;SDS011;3828;48.922;9.116;2023-03-15T10:00:29;1.30;;;1.30;;
7573;SDS011;3828;48.922;9.116;2023-03-15T10:03:01;1.00;;;1.00;;
7573;SDS011;3828;48.922;9.116;2023-03-15T10:05:33;1.20;;;1.20;;
7573;SDS011;3828;48.922;9.116;2023-03-15T10:08:08;1.03;;;1.03;;
7573;SDS011;3828;48.922;9.116;2023-03-15T10:10:37;1.10;;;1.10;;
7573;SDS011;3828;48.922;9.116;2023-03-15T10:13:12;1.10;;;1.10;;
7573;SDS011;3828;48.922;9.116;2023-03-15T10:15:58;1.20;;;1.20;;
7573;SDS011;3828;48.922;9.116;2023-03-15T10:18:34;1.10;;;1.10;;
7573;SDS011;3828;48.922;9.116;2023-03-15T10:21:15;1.20;;;1.20;;
7573;SDS011;3828;48.922;9.116;2023-03-15T10:23:53;1.03;;;1.03;;
7573;SDS011;3828;48.922;9.116;2023-03-15T10:26:21;1.20;;;1.20;;
7573;SDS011;3828;48.922;9.116;2023-03-15T10:28:53;1.50;;;1.50;;
7573;SDS011;3828;48.922;9.116;2023-03-15T10:31:21;1.20;;;1.20;;
7573;SDS011;3828;48.922;9.116;2023-03-15T10:33:52;1.20;;;1.20;;
7573;SDS011;3828;48.922;9.116;2023-03-15T10:36:20;1.13;;;1.13;;
7573;SDS011;3828;48.922;9.116;2023-03-15T10:38:48;1.10;;;1.10;;
7573;SDS011;3828;48.922;9.116;2023-03-15T10:41:27;1.20;;;1.20;;
7573;SDS011;3828;48.922;9.116;2023-03-15T10:43:56;1.07;;;1.07;;
7573;SDS011;3828;48.922;9.116;2023-03-15T10:46:26;1.10;;;1.10;;
7573;SDS011;3828;48.922;9.116;2023-03-15T10:48:55;1.10;;;1.10;;
7573;SDS011;3828;48.922;9.116;2023-03-15T10:51:24;1.20;;;1.20;;
7573;SDS011;3828;48.922;9.116;2023-03-15T10:53:54;1.20;;;1.20;;
7573;SDS011;3828;48.922;9.116;2023-03-15T10:56:24;1.30;;;1.30;;
7573;SDS011;3828;48.922;9.116;2023-03-15T10:58:54;1.30;;;1.30;;
7573;SDS011;3828;48.922;9.116;2023-03-15T11:01:23;1.20;;;1.20;;
7573;SDS011;3828;48.922;9.116;2023-03-15T11:04:05;1.30;;;1.30;;
7573;SDS011;3828;48.922;9.116;2023-03-15T11:06:40;1.30;;;1.30;;
7573;SDS011;3828;48.922;9.116;2023-03-15T11:09:10;1.40;;;1.40;;
7573;SDS011;3828;48.922;9.116;2023-03-15T11:11:57;1.40;;;1.40;;
7573;SDS011;3828;48.922;9.116;2023-03-15T11:14:26;1.30;;;1.30;;
7573;SDS011;3828;48.922;9.116;2023-03-15T11:16:58;1.60;;;1.60;;
7573;SDS011;3828;48.922;9.116;2023-03-15T11:19:26;1.30;;;1.30;;
7573;SDS011;3828;48.922;9.116;2023-03-15T11:21:55;1.20;;;1.20;;
7573;SDS011;3828;48.922;9.116;2023-03-15T11:24:25;1.30;;;1.30;;
7573;SDS011;3828;48.922;9.116;2023-03-15T11:26:55;1.30;;;1.30;;
7573;SDS011;3828;48.922;9.116;2023-03-15T11:29:26;1.33;;;1.33;;
7573;SDS011;3828;48.922;9.116;2023-03-15T11:31:57;1.40;;;1.40;;
7573;SDS011;3828;48.922;9.116;2023-03-15T11:34:30;1.30;;;1.30;;
7573;SDS011;3828;48.922;9.116;2023-03-15T11:37:04;1.37;;;1.37;;
7573;SDS011;3828;48.922;9.116;2023-03-15T11:39:38;1.20;;;1.20;;
7573;SDS011;3828;48.922;9.116;2023-03-15T11:42:12;1.30;;;1.30;;
7573;SDS011;3828;48.922;9.116;2023-03-15T11:44:43;1.20;;;1.20;;
7573;SDS011;3828;48.922;9.116;2023-03-15T11:47:13;1.60;;;1.60;;
7573;SDS011;3828;48.922;9.116;2023-03-15T11:49:49;1.40;;;1.40;;
7573;SDS011;3828;48.922;9.116;2023-03-15T11:52:18;1.30;;;1.30;;
7573;SDS011;3828;48.922;9.116;2023-03-15T11:54:47;1.37;;;1.37;;
7573;SDS011;3828;48.922;9.116;2023-03-15T12:06:10;1.43;;;1.43;;
7573;SDS011;3828;48.922;9.116;2023-03-15T12:08:52;1.37;;;1.37;;
7573;SDS011;3828;48.922;9.116;2023-03-15T12:14:22;1.40;;;1.40;;
7573;SDS011;3828;48.922;9.116;2023-03-15T12:17:20;1.40;;;1.40;;
7573;SDS011;3828;48.922;9.116;2023-03-15T12:20:20;1.40;;;1.40;;
7573;SDS011;3828;48.922;9.116;2023-03-15T12:22:53;1.40;;;1.40;;
7573;SDS011;3828;48.922;9.116;2023-03-15T12:25:42;1.20;;;1.20;;
7573;SDS011;3828;48.922;9.116;2023-03-15T12:28:18;1.50;;;1.50;;
7573;SDS011;3828;48.922;9.116;2023-03-15T12:30:51;1.30;;;1.30;;
7573;SDS011;3828;48.922;9.116;2023-03-15T12:33:21;1.33;;;1.33;;
7573;SDS011;3828;48.922;9.116;2023-03-15T12:35:50;1.20;;;1.20;;
7573;SDS011;3828;48.922;9.116;2023-03-15T12:38:25;1.40;;;1.40;;
7573;SDS011;3828;48.922;9.116;2023-03-15T12:41:00;1.43;;;1.43;;
7573;SDS011;3828;48.922;9.116;2023-03-15T12:43:37;1.40;;;1.40;;
7573;SDS011;3828;48.922;9.116;2023-03-15T12:46:05;1.23;;;1.23;;
7573;SDS011;3828;48.922;9.116;2023-03-15T12:48:33;1.30;;;1.30;;
7573;SDS011;3828;48.922;9.116;2023-03-15T12:51:04;1.17;;;1.17;;
7573;SDS011;3828;48.922;9.116;2023-03-15T12:53:39;1.20;;;1.20;;
7573;SDS011;3828;48.922;9.116;2023-03-15T12:59:29;1.47;;;1.47;;
7573;SDS011;3828;48.922;9.116;2023-03-15T13:01:59;1.40;;;1.40;;
7573;SDS011;3828;48.922;9.116;2023-03-15T13:04:28;1.40;;;1.40;;
7573;SDS011;3828;48.922;9.116;2023-03-15T13:09:53;1.40;;;1.40;;
7573;SDS011;3828;48.922;9.116;2023-03-15T13:12:43;1.40;;;1.40;;
7573;SDS011;3828;48.922;9.116;2023-03-15T13:15:16;1.40;;;1.40;;
7573;SDS011;3828;48.922;9.116;2023-03-15T13:17:49;1.63;;;1.63;;
7573;SDS011;3828;48.922;9.116;2023-03-15T13:20:36;1.30;;;1.30;;
7573;SDS011;3828;48.922;9.116;2023-03-15T13:23:10;1.50;;;1.50;;
7573;SDS011;3828;48.922;9.116;2023-03-15T13:25:41;1.50;;;1.50;;
7573;SDS011;3828;48.922;9.116;2023-03-15T13:28:18;1.40;;;1.40;;
7573;SDS011;3828;48.922;9.116;2023-03-15T13:30:48;1.23;;;1.23;;
7573;SDS011;3828;48.922;9.116;2023-03-15T13:33:19;1.10;;;1.10;;
7573;SDS011;3828;48.922;9.116;2023-03-15T13:35:53;1.10;;;1.10;;
7573;SDS011;3828;48.922;9.116;2023-03-15T13:38:23;1.00;;;1.00;;
7573;SDS011;3828;48.922;9.116;2023-03-15T13:40:52;1.00;;;1.00;;
7573;SDS011;3828;48.922;9.116;2023-03-15T13:43:22;1.00;;;1.00;;
7573;SDS011;3828;48.922;9.116;2023-03-15T13:45:50;1.00;;;1.00;;
7573;SDS011;3828;48.922;9.116;2023-03-15T13:48:18;1.10;;;1.10;;
7573;SDS011;3828;48.922;9.116;2023-03-15T13:50:47;1.00;;;1.00;;
7573;SDS011;3828;48.922;9.116;2023-03-15T13:53:17;1.20;;;1.20;;
7573;SDS011;3828;48.922;9.116;2023-03-15T13:55:48;1.20;;;1.20;;
7573;SDS011;3828;48.922;9.116;2023-03-15T13:58:16;1.20;;;1.20;;
7573;SDS011;3828;48.922;9.116;2023-03-15T14:00:44;1.10;;;1.10;;
7573;SDS011;3828;48.922;9.116;2023-03-15T14:03:12;1.00;;;1.00;;
7573;SDS011;3828;48.922;9.116;2023-03-15T14:05:42;0.90;;;0.90;;
7573;SDS011;3828;48.922;9.116;2023-03-15T14:08:22;0.80;;;0.80;;
7573;SDS011;3828;48.922;9.116;2023-03-15T14:11:03;0.90;;;0.90;;
7573;SDS011;3828;48.922;9.116;2023-03-15T14:13:31;0.90;;;0.90;;
7573;SDS011;3828;48.922;9.116;2023-03-15T14:16:00;0.90;;;0.90;;
7573;SDS011;3828;48.922;9.116;2023-03-15T14:18:29;1.00;;;1.00;;
7573;SDS011;3828;48.922;9.116;2023-03-15T14:20:59;0.90;;;0.90;;
7573;SDS011;3828;48.922;9.116;2023-03-15T14:23:30;1.10;;;1.10;;
7573;SDS011;3828;48.922;9.116;2023-03-15T14:26:01;1.20;;;1.20;;
7573;SDS011;3828;48.922;9.116;2023-03-15T14:28:32;1.30;;;1.30;;
7573;SDS011;3828;48.922;9.116;2023-03-15T14:30:59;1.20;;;1.20;;
7573;SDS011;3828;48.922;9.116;2023-03-15T14:33:29;1.40;;;1.40;;
7573;SDS011;3828;48.922;9.116;2023-03-15T14:35:58;1.40;;;1.40;;
7573;SDS011;3828;48.922;9.116;2023-03-15T14:38:31;1.30;;;1.30;;
7573;SDS011;3828;48.922;9.116;2023-03-15T14:41:10;1.40;;;1.40;;
7573;SDS011;3828;48.922;9.116;2023-03-15T14:43:44;1.57;;;1.57;;
7573;SDS011;3828;48.922;9.116;2023-03-15T14:46:11;1.40;;;1.40;;
7573;SDS011;3828;48.922;9.116;2023-03-15T14:48:39;1.60;;;1.60;;
7573;SDS011;3828;48.922;9.116;2023-03-15T14:51:06;1.30;;;1.30;;
7573;SDS011;3828;48.922;9.116;2023-03-15T14:53:41;1.50;;;1.50;;
7573;SDS011;3828;48.922;9.116;2023-03-15T14:56:09;1.47;;;1.47;;
7573;SDS011;3828;48.922;9.116;2023-03-15T14:58:37;1.50;;;1.50;;
7573;SDS011;3828;48.922;9.116;2023-03-15T15:01:04;1.53;;;1.53;;
7573;SDS011;3828;48.922;9.116;2023-03-15T15:03:32;1.43;;;1.43;;
7573;SDS011;3828;48.922;9.116;2023-03-15T15:06:02;1.50;;;1.50;;
7573;SDS011;3828;48.922;9.116;2023-03-15T15:08:31;1.43;;;1.43;;
7573;SDS011;3828;48.922;9.116;2023-03-15T15:11:03;1.50;;;1.50;;
7573;SDS011;3828;48.922;9.116;2023-03-15T15:13:32;1.60;;;1.60;;
7573;SDS011;3828;48.922;9.116;2023-03-15T15:15:59;1.60;;;1.60;;
7573;SDS011;3828;48.922;9.116;2023-03-15T15:18:27;1.70;;;1.70;;
7573;SDS011;3828;48.922;9.116;2023-03-15T15:20:55;1.63;;;1.63;;
7573;SDS011;3828;48.922;9.116;2023-03-15T15:23:25;1.60;;;1.60;;
7573;SDS011;3828;48.922;9.116;2023-03-15T15:25:55;1.30;;;1.30;;
7573;SDS011;3828;48.922;9.116;2023-03-15T15:28:25;1.50;;;1.50;;
7573;SDS011;3828;48.922;9.116;2023-03-15T15:30:52;1.40;;;1.40;;
7573;SDS011;3828;48.922;9.116;2023-03-15T15:33:19;1.57;;;1.57;;
7573;SDS011;3828;48.922;9.116;2023-03-15T15:35:47;1.30;;;1.30;;
7573;SDS011;3828;48.922;9.116;2023-03-15T15:38:15;1.60;;;1.60;;
7573;SDS011;3828;48.922;9.116;2023-03-15T15:40:42;1.60;;;1.60;;
7573;SDS011;3828;48.922;9.116;2023-03-15T15:43:09;1.50;;;1.50;;
7573;SDS011;3828;48.922;9.116;2023-03-15T15:45:38;1.40;;;1.40;;